Time;durP1;ratioP1;P1;durP2;ratioP2;P2;SDS_P1;SDS_P2;PMS_P1;PMS_P2;Temp;Humidity;BMP_temperature;BMP_pressure;BME280_temperature;BME280_humidity;BME280_pressure;Samples;Min_cycle;Max_cycle;Signal;HPM_P1;HPM_P2
2022/11/12 00:01:21;;;;;;;;;;;9.60;83.10;;;-151.14;100.00;62537.16;5073423;28;20119;-83
2022/11/12 00:04:08;;;;;;;;;;;9.60;83.10;;;-151.14;100.00;62537.16;5073148;28;19920;-83
2022/11/12 00:06:54;;;;;;;;;;;9.60;83.10;;;-151.14;100.00;62537.16;5073041;28;19973;-83
2022/11/12 00:09:40;;;;;;;;;;;9.60;83.10;;;-151.14;100.00;62537.16;5073434;28;19926;-83
2022/11/12 00:12:28;;;;;;;;;;;9.60;83.10;;;-151.14;100.00;62537.16;5073390;28;19921;-83
2022/11/12 00:15:15;;;;;;;;;;;9.60;83.10;;;-151.14;100.00;62537.16;5072902;28;19926;-83
2022/11/12 00:18:01;;;;;;;;;;;9.60;83.10;;;-151.14;100.00;62537.16;5073910;28;19926;-83
2022/11/12 00:20:48;;;;;;;;;;;9.60;83.10;;;-151.14;100.00;62537.16;5093703;28;19927;-83
2022/11/12 00:23:34;;;;;;;;;;;9.60;83.20;;;-151.14;100.00;62537.16;5093462;28;19942;-83
2022/11/12 00:26:21;;;;;;;;;;;9.60;83.10;;;-151.14;100.00;62537.16;5093314;28;19920;-83
2022/11/12 00:29:08;;;;;;;;;;;9.60;83.10;;;-151.14;100.00;62537.16;5093430;28;19926;-83
2022/11/12 00:31:55;;;;;;;;;;;9.60;83.20;;;-151.14;100.00;62537.16;5093550;28;19926;-83
2022/11/12 00:34:41;;;;;;;;;;;9.60;84.00;;;-151.14;100.00;62537.16;5092877;28;19920;-83
2022/11/12 00:37:28;;;;;;;;;;;9.60;83.20;;;-151.14;100.00;62537.16;5094321;28;19920;-85
2022/11/12 00:40:15;;;;;;;;;;;9.60;83.20;;;-151.14;100.00;62537.16;5093395;28;20097;-83
2022/11/12 00:43:02;;;;;;;;;;;9.70;83.20;;;-151.14;100.00;62537.16;5093136;28;20208;-84
2022/11/12 00:45:50;;;;;;;;;;;9.60;83.20;;;-151.14;100.00;62537.16;5092951;28;19920;-83
2022/11/12 00:48:37;;;;;;;;;;;9.60;83.20;;;-151.14;100.00;62537.16;5093023;28;19920;-83
2022/11/12 00:51:23;;;;;;;;;;;9.60;83.20;;;-151.14;100.00;62537.16;5094361;28;19926;-83
2022/11/12 00:54:10;;;;;;;;;;;9.60;83.20;;;-151.14;100.00;62537.16;5092792;28;19927;-83
2022/11/12 00:56:56;;;;;;;;;;;9.60;83.30;;;-151.14;100.00;62537.16;5093853;28;20139;-84
2022/11/12 00:59:43;;;;;;;;;;;9.60;83.30;;;-151.14;100.00;62537.16;5092926;28;19920;-83
2022/11/12 01:02:31;;;;;;;;;;;9.60;83.40;;;-151.14;100.00;62537.16;5094048;28;19943;-83
2022/11/12 01:05:17;;;;;;;;;;;9.60;83.30;;;-151.14;100.00;62537.16;5092395;28;19920;-83
2022/11/12 01:08:04;;;;;;;;;;;9.60;83.30;;;-151.14;100.00;62537.16;5092594;28;19948;-83
2022/11/12 01:10:51;;;;;;;;;;;9.60;83.40;;;-151.14;100.00;62537.16;5092916;28;19920;-83
2022/11/12 01:13:38;;;;;;;;;;;9.60;83.30;;;-151.14;100.00;62537.16;5093782;28;20097;-83
2022/11/12 01:16:25;;;;;;;;;;;9.60;83.40;;;-151.14;100.00;62537.16;5092471;28;19920;-83
2022/11/12 01:19:13;;;;;;;;;;;9.60;83.30;;;-151.14;100.00;62537.16;5092578;28;19926;-83
2022/11/12 01:22:00;;;;;;;;;;;9.60;83.30;;;-151.14;100.00;62537.16;5092651;28;19921;-82
2022/11/12 01:24:47;;;;;;;;;;;9.60;83.40;;;-151.14;100.00;62537.16;5092014;28;19920;-83
2022/11/12 01:27:33;;;;;;;;;;;9.60;83.40;;;-151.14;100.00;62537.16;5092514;28;19920;-84
2022/11/12 01:30:20;;;;;;;;;;;9.60;83.30;;;-151.14;100.00;62537.16;5093356;28;20208;-83
2022/11/12 01:33:07;;;;;;;;;;;9.60;83.50;;;-151.14;100.00;62537.16;5092549;28;20097;-81
2022/11/12 01:35:58;;;;;;;;;;;9.60;83.40;;;-151.14;100.00;62537.16;5092157;28;19927;-81
2022/11/12 01:38:44;;;;;;;;;;;9.60;83.40;;;-151.14;100.00;62537.16;5092265;28;19926;-81
2022/11/12 01:41:32;;;;;;;;;;;9.60;83.50;;;-151.14;100.00;62537.16;5092280;28;19942;-81
2022/11/12 01:44:20;;;;;;;;;;;9.60;83.50;;;-151.14;100.00;62537.16;5092187;28;20216;-81
2022/11/12 01:47:07;;;;;;;;;;;9.60;83.40;;;-151.14;100.00;62537.16;5092219;28;19927;-81
2022/11/12 01:49:56;;;;;;;;;;;9.60;83.50;;;-151.14;100.00;62537.16;5092106;28;19920;-81
2022/11/12 01:52:46;;;;;;;;;;;9.60;83.60;;;-151.14;100.00;62537.16;5097699;28;20119;-81
2022/11/12 01:55:34;;;;;;;;;;;9.60;83.60;;;-151.14;100.00;62537.16;5095016;28;19926;-81
2022/11/12 01:58:21;;;;;;;;;;;9.60;83.60;;;-151.14;100.00;62537.16;5095534;28;19942;-81
2022/11/12 02:01:07;;;;;;;;;;;9.60;83.60;;;-151.14;100.00;62537.16;5095345;28;19927;-81
2022/11/12 02:03:54;;;;;;;;;;;9.60;83.60;;;-151.14;100.00;62537.16;5095129;28;19919;-81
2022/11/12 02:06:40;;;;;;;;;;;9.60;83.60;;;-151.14;100.00;62537.16;5112807;28;19926;-81
2022/11/12 02:09:28;;;;;;;;;;;9.60;83.60;;;-151.14;100.00;62537.16;5095273;28;19926;-81
2022/11/12 02:13:56;;;;;;;;;;;9.60;83.60;;;-151.14;100.00;62537.16;5095384;28;19927;-81
2022/11/12 02:15:21;;;;;;;;;;;9.60;83.50;;;-151.14;100.00;62537.16;5092218;28;19920;-81
2022/11/12 02:18:07;;;;;;;;;;;9.60;83.60;;;-151.14;100.00;62537.16;5080283;28;19926;-81
2022/11/12 02:20:54;;;;;;;;;;;9.60;83.50;;;-151.14;100.00;62537.16;5113184;28;20379;-81
2022/11/12 02:23:42;;;;;;;;;;;9.60;83.50;;;-151.14;100.00;62537.16;5094911;28;19926;-80
2022/11/12 02:26:30;;;;;;;;;;;9.60;83.50;;;-151.14;100.00;62537.16;5094813;28;19920;-81
2022/11/12 02:29:17;;;;;;;;;;;9.60;83.60;;;-151.14;100.00;62537.16;5094780;28;19927;-81
2022/11/12 02:32:04;;;;;;;;;;;9.60;83.70;;;-151.14;100.00;62537.16;5094822;28;19920;-81
2022/11/12 02:34:50;;;;;;;;;;;9.60;83.50;;;-151.14;100.00;62537.16;5094337;28;19926;-81
2022/11/12 02:37:37;;;;;;;;;;;9.60;83.50;;;-151.14;100.00;62537.16;5094661;28;19919;-81
2022/11/12 02:40:25;;;;;;;;;;;9.60;83.60;;;-151.14;100.00;62537.16;5091880;28;19930;-81
2022/11/12 02:43:11;;;;;;;;;;;9.60;83.60;;;-151.14;100.00;62537.16;5092371;28;20242;-81
2022/11/12 02:45:58;;;;;;;;;;;9.60;83.50;;;-151.14;100.00;62537.16;5091885;28;19920;-80
2022/11/12 02:48:45;;;;;;;;;;;9.60;83.60;;;-151.14;100.00;62537.16;5092350;28;19920;-81
2022/11/12 02:51:32;;;;;;;;;;;9.60;83.60;;;-151.14;100.00;62537.16;5074307;28;19920;-80
2022/11/12 02:54:18;;;;;;;;;;;9.60;83.60;;;-151.14;100.00;62537.16;5074193;28;20121;-81
2022/11/12 02:57:06;;;;;;;;;;;9.60;83.60;;;-151.14;100.00;62537.16;5074413;28;19926;-80
2022/11/12 02:59:53;;;;;;;;;;;9.60;83.60;;;-151.14;100.00;62537.16;5074192;28;19921;-81
2022/11/12 03:02:41;;;;;;;;;;;9.60;83.60;;;-151.14;100.00;62537.16;5092292;28;20132;-81
2022/11/12 03:05:29;;;;;;;;;;;9.60;83.60;;;-151.14;100.00;62537.16;5073681;28;19942;-81
2022/11/12 03:08:17;;;;;;;;;;;9.60;83.60;;;-151.14;100.00;62537.16;5091172;28;20457;-81
2022/11/12 03:11:08;;;;;;;;;;;9.60;83.50;;;-151.14;100.00;62537.16;5073985;28;19943;-81
2022/11/12 03:13:56;;;;;;;;;;;9.60;83.60;;;-151.14;100.00;62537.16;5073805;28;19927;-80
2022/11/12 03:16:43;;;;;;;;;;;9.60;83.60;;;-151.14;100.00;62537.16;5073722;28;20234;-80
2022/11/12 03:19:29;;;;;;;;;;;9.50;83.60;;;-151.14;100.00;62537.16;5073957;28;20204;-80
2022/11/12 03:22:16;;;;;;;;;;;9.60;83.60;;;-151.14;100.00;62537.16;5074043;28;19977;-80
2022/11/12 03:25:02;;;;;;;;;;;9.60;83.60;;;-151.14;100.00;62537.16;5091307;28;19934;-80
2022/11/12 03:27:49;;;;;;;;;;;9.60;83.60;;;-151.14;100.00;62537.16;5091736;28;19920;-81
2022/11/12 03:30:37;;;;;;;;;;;9.60;83.50;;;-151.14;100.00;62537.16;5073906;28;19942;-81
2022/11/12 03:33:24;;;;;;;;;;;9.60;83.50;;;-151.14;100.00;62537.16;5073623;28;19920;-81
2022/11/12 03:36:11;;;;;;;;;;;9.60;83.60;;;-151.14;100.00;62537.16;5073446;28;20290;-81
2022/11/12 03:38:57;;;;;;;;;;;9.50;83.60;;;-151.14;100.00;62537.16;5091590;28;19920;-80
2022/11/12 03:41:44;;;;;;;;;;;9.50;83.60;;;-151.14;100.00;62537.16;5091602;28;20234;-80
2022/11/12 03:44:30;;;;;;;;;;;9.50;83.60;;;-151.14;100.00;62537.16;5077412;28;20215;-81
2022/11/12 03:47:18;;;;;;;;;;;9.50;83.60;;;-151.14;100.00;62537.16;5093332;28;19926;-80
2022/11/12 03:50:06;;;;;;;;;;;9.50;83.60;;;-151.14;100.00;62537.16;5093647;28;19926;-80
2022/11/12 03:52:53;;;;;;;;;;;9.50;83.60;;;-151.14;100.00;62537.16;5093790;28;19919;-80
2022/11/12 03:55:40;;;;;;;;;;;9.50;83.60;;;-151.14;100.00;62537.16;5093207;28;19920;-81
2022/11/12 03:58:26;;;;;;;;;;;9.50;83.60;;;-151.14;100.00;62537.16;5093542;28;19920;-80
2022/11/12 04:01:13;;;;;;;;;;;9.50;83.60;;;-151.14;100.00;62537.16;5093568;28;20205;-80
2022/11/12 04:04:00;;;;;;;;;;;9.50;83.70;;;-151.14;100.00;62537.16;5093213;28;19920;-80
2022/11/12 04:09:51;;;;;;;;;;;9.50;83.60;;;-151.14;100.00;62537.16;5073585;28;19926;-81
2022/11/12 04:15:42;;;;;;;;;;;9.50;83.70;;;-151.14;100.00;62537.16;5072791;28;19921;-81
2022/11/12 04:21:53;;;;;;;;;;;9.50;83.60;;;-151.14;100.00;62537.16;5108257;28;19934;-81
2022/11/12 04:27:45;;;;;;;;;;;9.50;83.70;;;-151.14;100.00;62537.16;5093170;28;19919;-80
2022/11/12 04:30:30;;;;;;;;;;;9.50;83.70;;;-151.14;100.00;62537.16;5111276;28;19920;-80
2022/11/12 04:33:16;;;;;;;;;;;9.50;83.70;;;-151.14;100.00;62537.16;5093275;28;19942;-81
2022/11/12 04:36:03;;;;;;;;;;;9.50;83.60;;;-151.14;100.00;62537.16;5092787;28;19919;-80
2022/11/12 04:38:51;;;;;;;;;;;9.50;83.60;;;-151.14;100.00;62537.16;5093064;28;20207;-80
2022/11/12 04:45:00;;;;;;;;;;;9.50;83.70;;;-151.14;100.00;62537.16;5092414;28;19926;-81
2022/11/12 04:47:46;;;;;;;;;;;9.50;83.70;;;-151.14;100.00;62537.16;5072825;28;19920;-80
2022/11/12 04:50:33;;;;;;;;;;;9.50;83.70;;;-151.14;100.00;62537.16;5072929;28;19931;-81
2022/11/12 04:53:19;;;;;;;;;;;9.50;83.60;;;-151.14;100.00;62537.16;5072584;28;19920;-80
2022/11/12 04:56:07;;;;;;;;;;;9.50;83.60;;;-151.14;100.00;62537.16;5090419;28;19926;-80
2022/11/12 04:58:54;;;;;;;;;;;9.50;83.70;;;-151.14;100.00;62537.16;5090625;28;20112;-80
2022/11/12 05:01:41;;;;;;;;;;;9.50;83.70;;;-151.14;100.00;62537.16;5072690;28;19920;-81
2022/11/12 05:04:28;;;;;;;;;;;9.50;83.70;;;-151.14;100.00;62537.16;5073919;28;19927;-81
2022/11/12 05:07:14;;;;;;;;;;;9.50;83.60;;;-151.14;100.00;62537.16;5076151;28;19920;-80
2022/11/12 05:10:01;;;;;;;;;;;9.50;83.60;;;-151.14;100.00;62537.16;5076126;28;19934;-80
2022/11/12 05:12:49;;;;;;;;;;;9.50;83.60;;;-151.14;100.00;62537.16;5093967;28;19920;-81
2022/11/12 05:15:35;;;;;;;;;;;9.50;83.60;;;-151.14;100.00;62537.16;5093448;28;20112;-80
2022/11/12 05:18:22;;;;;;;;;;;9.50;83.60;;;-151.14;100.00;62537.16;5075806;28;19927;-80
2022/11/12 05:24:08;;;;;;;;;;;9.50;84.40;;;-151.14;100.00;62537.16;5075374;28;20100;-80
2022/11/12 05:26:55;;;;;;;;;;;9.50;83.60;;;-151.14;100.00;62537.16;5075497;28;20241;-80
2022/11/12 05:29:43;;;;;;;;;;;9.50;83.60;;;-151.14;100.00;62537.16;5075552;28;19934;-80
2022/11/12 05:32:29;;;;;;;;;;;9.50;83.60;;;-151.14;100.00;62537.16;5075687;28;19928;-81
2022/11/12 05:35:15;;;;;;;;;;;9.50;83.60;;;-151.14;100.00;62537.16;5075150;28;19934;-80
2022/11/12 05:38:02;;;;;;;;;;;9.50;83.70;;;-151.14;100.00;62537.16;5075569;28;19920;-80
2022/11/12 05:40:48;;;;;;;;;;;9.50;83.60;;;-151.14;100.00;62537.16;5093362;28;19921;-80
2022/11/12 05:43:35;;;;;;;;;;;9.50;83.50;;;-151.14;100.00;62537.16;5075353;28;19927;-80
2022/11/12 05:46:23;;;;;;;;;;;9.50;83.60;;;-151.14;100.00;62537.16;5075228;28;19936;-80
2022/11/12 05:49:09;;;;;;;;;;;9.50;83.50;;;-151.14;100.00;62537.16;5075376;28;19959;-80
2022/11/12 05:51:56;;;;;;;;;;;9.50;83.60;;;-151.14;100.00;62537.16;5075208;28;20119;-80
2022/11/12 05:54:42;;;;;;;;;;;9.50;83.60;;;-151.14;100.00;62537.16;5074850;28;20116;-81
2022/11/12 05:57:28;;;;;;;;;;;9.50;83.60;;;-151.14;100.00;62537.16;5093272;28;19920;-80
2022/11/12 06:00:17;;;;;;;;;;;9.50;83.60;;;-151.14;100.00;62537.16;5075338;28;20216;-80
2022/11/12 06:03:04;;;;;;;;;;;9.50;83.60;;;-151.14;100.00;62537.16;5075223;28;20211;-80
2022/11/12 06:05:51;;;;;;;;;;;9.50;83.60;;;-151.14;100.00;62537.16;5092709;28;19927;-80
2022/11/12 06:08:37;;;;;;;;;;;9.50;83.60;;;-151.14;100.00;62537.16;5074974;28;19926;-80
2022/11/12 06:11:24;;;;;;;;;;;9.50;83.60;;;-151.14;100.00;62537.16;5075025;28;20115;-80
2022/11/12 06:14:11;;;;;;;;;;;9.50;83.60;;;-151.14;100.00;62537.16;5074828;28;20146;-80
2022/11/12 06:16:57;;;;;;;;;;;9.50;83.70;;;-151.14;100.00;62537.16;5073665;28;19920;-80
2022/11/12 06:19:45;;;;;;;;;;;9.50;83.80;;;-151.14;100.00;62537.16;5074994;28;19920;-80
2022/11/12 06:22:31;;;;;;;;;;;9.50;83.60;;;-151.14;100.00;62537.16;5083479;28;19919;-81
2022/11/12 06:25:18;;;;;;;;;;;9.50;83.70;;;-151.14;100.00;62537.16;5094414;28;20227;-80
2022/11/12 06:28:05;;;;;;;;;;;9.50;83.60;;;-151.14;100.00;62537.16;5094893;28;19920;-81
2022/11/12 06:30:51;;;;;;;;;;;9.50;83.60;;;-151.14;100.00;62537.16;5094902;28;19930;-80
2022/11/12 06:33:38;;;;;;;;;;;9.50;83.60;;;-151.14;100.00;62537.16;5112797;28;19920;-80
2022/11/12 06:36:26;;;;;;;;;;;9.50;83.70;;;-151.14;100.00;62537.16;5094536;28;19920;-81
2022/11/12 06:39:12;;;;;;;;;;;9.50;83.60;;;-151.14;100.00;62537.16;5074540;28;19920;-80
2022/11/12 06:42:00;;;;;;;;;;;9.50;83.60;;;-151.14;100.00;62537.16;5092596;28;19926;-81
2022/11/12 06:44:47;;;;;;;;;;;9.50;83.60;;;-151.14;100.00;62537.16;5107764;28;19921;-81
2022/11/12 06:47:34;;;;;;;;;;;9.50;83.60;;;-151.14;100.00;62537.16;5108160;28;19920;-81
2022/11/12 06:50:20;;;;;;;;;;;9.50;83.60;;;-151.14;100.00;62537.16;5108122;28;20212;-80
2022/11/12 06:53:08;;;;;;;;;;;9.50;83.60;;;-151.14;100.00;62537.16;5111340;28;20230;-81
2022/11/12 06:55:55;;;;;;;;;;;9.50;83.50;;;-151.14;100.00;62537.16;5112219;28;20127;-81
2022/11/12 06:58:41;;;;;;;;;;;9.50;83.60;;;-151.14;100.00;62537.16;5094629;28;19920;-80
2022/11/12 07:01:28;;;;;;;;;;;9.50;83.60;;;-151.14;100.00;62537.16;5094435;28;20115;-81
2022/11/12 07:04:14;;;;;;;;;;;9.50;83.60;;;-151.14;100.00;62537.16;5094256;28;19920;-80
2022/11/12 07:07:01;;;;;;;;;;;9.50;83.60;;;-151.14;100.00;62537.16;5111794;28;19919;-80
2022/11/12 07:09:49;;;;;;;;;;;9.50;83.70;;;-151.14;100.00;62537.16;5094395;28;19926;-80
2022/11/12 07:12:35;;;;;;;;;;;9.50;83.70;;;-151.14;100.00;62537.16;5094334;28;20118;-80
2022/11/12 07:15:22;;;;;;;;;;;9.50;83.60;;;-151.14;100.00;62537.16;5093708;28;19926;-80
2022/11/12 07:18:08;;;;;;;;;;;9.50;83.60;;;-151.14;100.00;62537.16;5094219;28;20234;-81
2022/11/12 07:20:59;;;;;;;;;;;9.50;83.60;;;-151.14;100.00;62537.16;5094092;28;19920;-80
2022/11/12 07:23:46;;;;;;;;;;;9.50;83.60;;;-151.14;100.00;62537.16;5094018;28;19926;-81
2022/11/12 07:26:34;;;;;;;;;;;9.50;83.60;;;-151.14;100.00;62537.16;5093357;28;20217;-80
2022/11/12 07:29:20;;;;;;;;;;;9.50;83.60;;;-151.14;100.00;62537.16;5094079;28;19919;-80
2022/11/12 07:32:07;;;;;;;;;;;9.50;83.70;;;-151.14;100.00;62537.16;5094039;28;19942;-81
2022/11/12 07:34:53;;;;;;;;;;;9.50;83.70;;;-151.14;100.00;62537.16;5093562;28;19926;-81
2022/11/12 07:37:40;;;;;;;;;;;9.50;83.70;;;-151.14;100.00;62537.16;5093777;28;19926;-81
2022/11/12 07:40:27;;;;;;;;;;;9.50;83.60;;;-151.14;100.00;62537.16;5093941;28;20249;-80
2022/11/12 07:43:15;;;;;;;;;;;9.50;83.60;;;-151.14;100.00;62537.16;5093675;28;19920;-81
2022/11/12 07:46:02;;;;;;;;;;;9.50;83.60;;;-151.14;100.00;62537.16;5111459;28;20211;-81
2022/11/12 07:48:49;;;;;;;;;;;9.50;83.70;;;-151.14;100.00;62537.16;5111795;28;20204;-81
2022/11/12 07:51:36;;;;;;;;;;;9.50;83.70;;;-151.14;100.00;62537.16;5093764;28;19934;-80
2022/11/12 07:54:22;;;;;;;;;;;9.50;83.70;;;-151.14;100.00;62537.16;5093529;28;19919;-81
2022/11/12 07:57:09;;;;;;;;;;;9.50;83.60;;;-151.14;100.00;62537.16;5093663;28;20101;-81
2022/11/12 07:59:56;;;;;;;;;;;9.50;83.60;;;-151.14;100.00;62537.16;5111816;28;19919;-80
2022/11/12 08:02:43;;;;;;;;;;;9.50;83.70;;;-151.14;100.00;62537.16;5111553;28;19920;-81
2022/11/12 08:05:30;;;;;;;;;;;9.50;83.70;;;-151.14;100.00;62537.16;5110949;28;19928;-80
2022/11/12 08:08:16;;;;;;;;;;;9.50;83.60;;;-151.14;100.00;62537.16;5093055;28;20242;-80
2022/11/12 08:11:02;;;;;;;;;;;9.50;83.70;;;-151.14;100.00;62537.16;5093453;28;19926;-81
2022/11/12 08:13:49;;;;;;;;;;;9.50;83.60;;;-151.14;100.00;62537.16;5093175;28;19926;-80
2022/11/12 08:16:37;;;;;;;;;;;9.50;84.40;;;-151.14;100.00;62537.16;5093006;28;20097;-80
2022/11/12 08:19:23;;;;;;;;;;;9.50;83.60;;;-151.14;100.00;62537.16;5085365;28;19926;-80
2022/11/12 08:22:10;;;;;;;;;;;9.50;83.40;;;-151.14;100.00;62537.16;5073163;28;19920;-81
2022/11/12 08:24:56;;;;;;;;;;;9.50;83.70;;;-151.14;100.00;62537.16;5072522;28;20230;-81
2022/11/12 08:27:43;;;;;;;;;;;9.50;83.60;;;-151.14;100.00;62537.16;5073259;28;19926;-80
2022/11/12 08:30:29;;;;;;;;;;;9.50;83.60;;;-151.14;100.00;62537.16;5073108;28;20364;-81
2022/11/12 08:33:17;;;;;;;;;;;9.60;83.60;;;-151.14;100.00;62537.16;5072972;28;19920;-80
2022/11/12 08:36:04;;;;;;;;;;;9.60;83.50;;;-151.14;100.00;62537.16;5072660;28;19920;-81
2022/11/12 08:38:52;;;;;;;;;;;9.60;83.40;;;-151.14;100.00;62537.16;5091407;28;19924;-80
2022/11/12 08:41:39;;;;;;;;;;;9.60;83.40;;;-151.14;100.00;62537.16;5094465;28;20250;-80
2022/11/12 08:44:25;;;;;;;;;;;9.60;83.40;;;-151.14;100.00;62537.16;5076383;28;20123;-81
2022/11/12 08:47:12;;;;;;;;;;;9.60;83.30;;;-151.14;100.00;62537.16;5076407;28;20117;-81
2022/11/12 08:50:00;;;;;;;;;;;9.60;83.20;;;-151.14;100.00;62537.16;5094315;28;20226;-81
2022/11/12 08:52:46;;;;;;;;;;;9.60;83.20;;;-151.14;100.00;62537.16;5094277;28;19920;-80
2022/11/12 08:55:33;;;;;;;;;;;9.60;83.10;;;-151.14;100.00;62537.16;5075829;28;19932;-81
2022/11/12 08:58:20;;;;;;;;;;;9.70;83.20;;;-151.14;100.00;62537.16;5076564;28;19920;-81
2022/11/12 09:01:07;;;;;;;;;;;9.70;82.90;;;-151.14;100.00;62537.16;5076220;28;19920;-80
2022/11/12 09:03:53;;;;;;;;;;;9.80;82.80;;;-151.14;100.00;62537.16;5076120;28;19927;-80
2022/11/12 09:06:41;;;;;;;;;;;9.80;82.60;;;-151.14;100.00;62537.16;5075808;28;19920;-81
2022/11/12 09:09:28;;;;;;;;;;;9.80;82.60;;;-151.14;100.00;62537.16;5076137;28;19926;-81
2022/11/12 09:12:17;;;;;;;;;;;9.80;82.40;;;-151.14;100.00;62537.16;5076209;28;19920;-80
2022/11/12 09:15:05;;;;;;;;;;;9.90;82.40;;;-151.14;100.00;62537.16;5093463;28;19920;-81
2022/11/12 09:17:55;;;;;;;;;;;9.90;82.40;;;-151.14;100.00;62537.16;5075943;28;19924;-80
2022/11/12 09:20:41;;;;;;;;;;;9.90;82.30;;;-151.14;100.00;62537.16;5075873;28;20208;-80
2022/11/12 09:23:29;;;;;;;;;;;10.00;82.00;;;-151.14;100.00;62537.16;5075784;28;19935;-80
2022/11/12 09:26:16;;;;;;;;;;;10.00;82.10;;;-151.14;100.00;62537.16;5075337;28;19920;-81
2022/11/12 09:29:02;;;;;;;;;;;10.00;82.20;;;-151.14;100.00;62537.16;5093644;28;19920;-80
2022/11/12 09:31:49;;;;;;;;;;;10.10;82.10;;;-151.14;100.00;62537.16;5093538;28;20204;-80
2022/11/12 09:34:35;;;;;;;;;;;10.10;82.00;;;-151.14;100.00;62537.16;5075458;28;19959;-81
2022/11/12 09:37:22;;;;;;;;;;;10.10;82.00;;;-151.14;100.00;62537.16;5075690;28;19920;-81
2022/11/12 09:40:15;;;;;;;;;;;10.20;82.00;;;-151.14;100.00;62537.16;5075713;28;19927;-80
2022/11/12 09:43:08;;;;;;;;;;;10.20;82.00;;;-151.14;100.00;62537.16;5075740;28;19927;-80
2022/11/12 09:45:56;;;;;;;;;;;10.20;81.90;;;-151.14;100.00;62537.16;5075044;28;19927;-80
2022/11/12 09:48:44;;;;;;;;;;;10.20;82.10;;;-151.14;100.00;62537.16;5093480;28;20005;-80
2022/11/12 09:51:32;;;;;;;;;;;10.20;82.00;;;-151.14;100.00;62537.16;5075336;28;20119;-80
2022/11/12 09:54:21;;;;;;;;;;;10.10;82.00;;;-151.14;100.00;62537.16;5075200;28;19920;-80
2022/11/12 09:57:11;;;;;;;;;;;10.10;82.00;;;-151.14;100.00;62537.16;5075446;28;19928;-80
2022/11/12 09:59:58;;;;;;;;;;;10.10;82.00;;;-151.14;100.00;62537.16;5093312;28;20213;-80
2022/11/12 10:02:47;;;;;;;;;;;10.10;82.00;;;-151.14;100.00;62537.16;5075230;28;19920;-80
2022/11/12 10:05:34;;;;;;;;;;;10.20;81.90;;;-151.14;100.00;62537.16;5074643;28;19927;-80
2022/11/12 10:08:30;;;;;;;;;;;10.20;81.90;;;-151.14;100.00;62537.16;5074899;28;19926;-80
2022/11/12 10:18:54;;;;;;;;;;;10.20;82.00;;;-151.14;100.00;62537.16;5074917;28;19942;-80
2022/11/12 10:21:44;;;;;;;;;;;10.20;81.80;;;-151.14;100.00;62537.16;5074962;28;20121;-80
2022/11/12 10:24:34;;;;;;;;;;;10.20;81.90;;;-151.14;100.00;62537.16;5074782;28;19926;-80
2022/11/12 10:27:24;;;;;;;;;;;10.20;81.90;;;-151.14;100.00;62537.16;5074731;28;19943;-81
2022/11/12 10:30:16;;;;;;;;;;;10.10;81.80;;;-151.14;100.00;62537.16;5092831;28;19927;-80
2022/11/12 10:33:02;;;;;;;;;;;10.10;81.80;;;-151.14;100.00;62537.16;5074858;28;20241;-81
2022/11/12 10:35:49;;;;;;;;;;;10.10;81.90;;;-151.14;100.00;62537.16;5074483;28;19927;-81
2022/11/12 10:38:36;;;;;;;;;;;10.10;82.00;;;-151.14;100.00;62537.16;5074657;28;19926;-80
2022/11/12 10:41:24;;;;;;;;;;;10.10;82.10;;;-151.14;100.00;62537.16;5074647;28;19927;-80
2022/11/12 10:44:13;;;;;;;;;;;10.10;82.20;;;-151.14;100.00;62537.16;5092481;28;19927;-80
2022/11/12 10:47:25;;;;;;;;;;;10.00;82.20;;;-151.14;100.00;62537.16;5092089;28;19920;-80
2022/11/12 10:50:16;;;;;;;;;;;10.00;82.20;;;-151.14;100.00;62537.16;5074441;28;19927;-80
2022/11/12 10:53:03;;;;;;;;;;;10.00;82.20;;;-151.14;100.00;62537.16;5074489;28;19973;-80
2022/11/12 10:55:57;;;;;;;;;;;10.00;82.30;;;-151.14;100.00;62537.16;5074408;28;19920;-80
2022/11/12 10:58:43;;;;;;;;;;;10.00;82.20;;;-151.14;100.00;62537.16;5074411;28;19926;-80
2022/11/12 11:01:30;;;;;;;;;;;10.00;82.20;;;-151.14;100.00;62537.16;5073762;28;19926;-80
2022/11/12 11:04:23;;;;;;;;;;;10.00;82.10;;;-151.14;100.00;62537.16;5074144;28;19920;-80
2022/11/12 11:07:16;;;;;;;;;;;10.10;82.20;;;-151.14;100.00;62537.16;5074154;28;19926;-80
2022/11/12 11:10:21;;;;;;;;;;;10.10;82.10;;;-151.14;100.00;62537.16;5074128;28;19927;-81
2022/11/12 11:13:09;;;;;;;;;;;10.10;83.00;;;-151.14;100.00;62537.16;5074549;28;19920;-80
2022/11/12 11:16:00;;;;;;;;;;;10.10;82.20;;;-151.14;100.00;62537.16;5073847;28;19920;-81
2022/11/12 11:18:48;;;;;;;;;;;10.10;82.20;;;-151.14;100.00;62537.16;5074183;28;20119;-80
2022/11/12 11:22:01;;;;;;;;;;;10.10;82.20;;;-151.14;100.00;62537.16;5074032;28;20211;-80
2022/11/12 11:24:51;;;;;;;;;;;10.10;82.20;;;-151.14;100.00;62537.16;5091401;28;19928;-80
2022/11/12 11:27:41;;;;;;;;;;;10.10;82.20;;;-151.14;100.00;62537.16;5073935;28;19920;-80
2022/11/12 11:30:28;;;;;;;;;;;10.10;82.20;;;-151.14;100.00;62537.16;5074038;28;19927;-80
2022/11/12 11:33:21;;;;;;;;;;;10.10;82.30;;;-151.14;100.00;62537.16;5073794;28;20093;-80
2022/11/12 11:36:21;;;;;;;;;;;10.10;82.20;;;-151.14;100.00;62537.16;5073544;28;19980;-80
2022/11/12 11:39:15;;;;;;;;;;;10.10;82.40;;;-151.14;100.00;62537.16;5074015;28;20145;-80
2022/11/12 11:42:08;;;;;;;;;;;10.10;82.40;;;-151.14;100.00;62537.16;5073888;28;19920;-80
2022/11/12 11:44:57;;;;;;;;;;;10.00;82.40;;;-151.14;100.00;62537.16;5091124;28;20212;-80
2022/11/12 11:47:48;;;;;;;;;;;10.00;82.30;;;-151.14;100.00;62537.16;5073717;28;20234;-80
2022/11/12 11:50:36;;;;;;;;;;;10.00;82.40;;;-151.14;100.00;62537.16;5091576;28;20204;-80
2022/11/12 11:53:24;;;;;;;;;;;10.00;82.40;;;-151.14;100.00;62537.16;5073462;28;20246;-80
2022/11/12 11:56:14;;;;;;;;;;;10.00;82.30;;;-151.14;100.00;62537.16;5073299;28;19927;-80
2022/11/12 11:59:17;;;;;;;;;;;10.00;82.40;;;-151.14;100.00;62537.16;5091486;28;19919;-80
2022/11/12 12:02:17;;;;;;;;;;;10.00;82.50;;;-151.14;100.00;62537.16;5073421;28;20116;-80
2022/11/12 12:05:08;;;;;;;;;;;10.00;82.50;;;-151.14;100.00;62537.16;5072828;28;19920;-80
2022/11/12 12:07:57;;;;;;;;;;;10.00;82.50;;;-151.14;100.00;62537.16;5091227;28;19930;-80
2022/11/12 12:10:49;;;;;;;;;;;10.00;82.60;;;-151.14;100.00;62537.16;5091407;28;20101;-80
2022/11/12 12:13:42;;;;;;;;;;;10.00;82.60;;;-151.14;100.00;62537.16;5073405;28;19931;-80
2022/11/12 12:16:38;;;;;;;;;;;10.00;82.60;;;-151.14;100.00;62537.16;5094584;28;19927;-80
2022/11/12 12:19:32;;;;;;;;;;;10.00;82.60;;;-151.14;100.00;62537.16;5077003;28;19926;-79
2022/11/12 12:22:21;;;;;;;;;;;10.00;82.60;;;-151.14;100.00;62537.16;5076855;28;19921;-80
2022/11/12 12:25:10;;;;;;;;;;;10.00;82.50;;;-151.14;100.00;62537.16;5076382;28;20119;-80
2022/11/12 12:27:59;;;;;;;;;;;10.00;82.60;;;-151.14;100.00;62537.16;5094621;28;19920;-80
2022/11/12 12:30:49;;;;;;;;;;;10.00;82.50;;;-151.14;100.00;62537.16;5076522;28;20230;-80
2022/11/12 12:33:38;;;;;;;;;;;10.00;82.70;;;-151.14;100.00;62537.16;5094530;28;19926;-80
2022/11/12 12:36:26;;;;;;;;;;;10.00;82.50;;;-151.14;100.00;62537.16;5076377;28;19920;-80
2022/11/12 12:39:14;;;;;;;;;;;10.00;82.60;;;-151.14;100.00;62537.16;5076683;28;19920;-80
2022/11/12 12:42:02;;;;;;;;;;;10.00;82.50;;;-151.14;100.00;62537.16;5094493;28;19926;-80
2022/11/12 12:45:03;;;;;;;;;;;9.90;82.50;;;-151.14;100.00;62537.16;5076039;28;19927;-80
2022/11/12 12:47:51;;;;;;;;;;;9.90;82.50;;;-151.14;100.00;62537.16;5076453;28;19920;-80
2022/11/12 12:50:38;;;;;;;;;;;9.90;82.50;;;-151.14;100.00;62537.16;5094403;28;20096;-80
2022/11/12 12:53:32;;;;;;;;;;;9.90;82.40;;;-151.14;100.00;62537.16;5076335;28;20127;-80
2022/11/12 12:56:44;;;;;;;;;;;9.90;82.50;;;-151.14;100.00;62537.16;5076067;28;19934;-80
2022/11/12 12:59:31;;;;;;;;;;;9.90;82.50;;;-151.14;100.00;62537.16;5076343;28;19927;-80